Terminal Aerodrome Forecast
Issued by NWS

Current Version | Previous Version | Graphics & Text | Print | Product List | Glossary On
Versions: 1 2 3 4 5 6 7 8 9 10 11 12 13 14 15 16 17 18 19 20 21 22 23
000
FTUS41 KILN 050300 AAC
TAFLUK
TAF AMD
KLUK 050358Z 0504/0524 35009KT 1 1/2SM -SN BR OVC017
     FM050900 36008KT 4SM -SN OVC025
     FM051200 32010KT P6SM BKN028=

USA.gov is the U.S. government's official web portal to all federal, state and local government web resources and services.